Time;durP1;ratioP1;P1;durP2;ratioP2;P2;SDS_P1;SDS_P2;PMS_P1;PMS_P2;Temp;Humidity;BMP_temperature;BMP_pressure;BME280_temperature;BME280_humidity;BME280_pressure;Samples;Min_cycle;Max_cycle;Signal;HPM_P1;HPM_P2
2022/01/08 00:00:34;;;;;;;3.75;2.55;;;0.50;74.70;;;;;;5026035;28;46683;-67
2022/01/08 00:03:00;;;;;;;6.22;2.60;;;0.60;74.50;;;;;;5024818;28;47828;-66
2022/01/08 00:05:26;;;;;;;3.45;2.72;;;0.70;75.10;;;;;;5025345;28;46402;-66
2022/01/08 00:07:52;;;;;;;4.32;3.25;;;0.80;73.50;;;;;;5025389;28;46857;-66
2022/01/08 00:10:18;;;;;;;2.67;2.47;;;0.80;73.20;;;;;;5023774;28;46652;-66
2022/01/08 00:12:45;;;;;;;3.60;2.83;;;0.80;72.90;;;;;;5023259;28;48678;-66
2022/01/08 00:15:11;;;;;;;4.00;2.47;;;0.70;73.00;;;;;;5023785;28;46674;-67
2022/01/08 00:17:37;;;;;;;4.57;2.50;;;0.50;73.20;;;;;;5023815;28;46598;-65
2022/01/08 00:20:06;;;;;;;3.75;2.35;;;0.40;73.60;;;;;;5007757;28;46549;-65
2022/01/08 00:22:32;;;;;;;3.47;2.72;;;0.30;73.80;;;;;;5023021;28;46352;-66
2022/01/08 00:25:00;;;;;;;5.43;3.27;;;0.30;73.90;;;;;;5023215;28;45775;-66
2022/01/08 00:27:26;;;;;;;3.70;2.60;;;0.30;73.70;;;;;;5023791;28;46735;-65
2022/01/08 00:29:52;;;;;;;2.70;2.40;;;0.30;73.50;;;;;;5023541;28;46498;-66
2022/01/08 00:32:18;;;;;;;3.07;2.73;;;0.40;73.50;;;;;;5022770;28;48757;-67
2022/01/08 00:34:44;;;;;;;3.03;2.40;;;0.40;73.20;;;;;;5022481;28;46500;-66
2022/01/08 00:37:10;;;;;;;4.50;2.70;;;0.30;73.10;;;;;;5022369;28;46414;-67
2022/01/08 00:39:37;;;;;;;2.83;2.27;;;0.10;73.30;;;;;;5023082;28;46463;-66
2022/01/08 00:42:05;;;;;;;2.30;2.10;;;-0.10;73.60;;;;;;5021576;28;48899;-66
2022/01/08 00:44:32;;;;;;;2.53;2.20;;;-0.40;73.80;;;;;;5023239;28;46261;-66
2022/01/08 00:46:58;;;;;;;5.60;2.38;;;-0.70;74.10;;;;;;5020973;28;46388;-65
2022/01/08 00:49:25;;;;;;;3.80;2.30;;;-1.00;74.60;;;;;;5022060;28;46532;-66
2022/01/08 00:51:51;;;;;;;2.80;2.40;;;-1.30;74.70;;;;;;5019982;28;47916;-66
2022/01/08 00:54:17;;;;;;;4.30;2.55;;;-1.40;74.90;;;;;;5022096;28;46733;-68
2022/01/08 00:56:43;;;;;;;3.50;2.67;;;-1.40;75.00;;;;;;5021496;28;46327;-66
2022/01/08 00:59:10;;;;;;;3.30;2.60;;;-1.50;74.80;;;;;;5021754;28;45924;-66
2022/01/08 01:01:36;;;;;;;4.30;2.60;;;-1.50;74.40;;;;;;5022339;28;48142;-65
2022/01/08 01:04:02;;;;;;;4.03;2.80;;;-1.40;74.10;;;;;;5024681;28;46639;-66
2022/01/08 01:06:28;;;;;;;7.30;3.13;;;-1.30;74.00;;;;;;5024531;28;46496;-66
2022/01/08 01:08:54;;;;;;;6.38;3.80;;;-1.30;73.60;;;;;;5007193;28;46463;-66
2022/01/08 01:11:20;;;;;;;6.75;4.18;;;-1.30;73.40;;;;;;5024027;28;46408;-66
2022/01/08 01:13:46;;;;;;;4.90;3.57;;;-1.20;73.30;;;;;;5022928;28;46533;-67
2022/01/08 01:16:12;;;;;;;3.63;3.13;;;-1.20;73.00;;;;;;5024166;28;46348;-66
2022/01/08 01:18:38;;;;;;;5.70;3.30;;;-1.20;73.00;;;;;;5022930;28;46660;-66
2022/01/08 01:21:04;;;;;;;5.88;3.80;;;-1.20;72.90;;;;;;5023109;28;47182;-66
2022/01/08 01:23:36;;;;;;;5.55;4.00;;;-1.30;73.00;;;;;;5022376;28;46402;-65
2022/01/08 01:26:05;;;;;;;7.22;3.88;;;-1.20;73.10;;;;;;5022794;28;46390;-67
2022/01/08 01:47:00;;;;;;;4.10;2.63;;;-1.60;72.90;;;;;;5023061;28;45766;-66
2022/01/08 01:49:27;;;;;;;3.92;2.58;;;-2.00;73.30;;;;;;5022389;28;46439;-65
2022/01/08 01:51:53;;;;;;;3.33;3.00;;;-2.20;73.50;;;;;;5021014;28;47902;-65
2022/01/08 01:54:19;;;;;;;4.10;3.20;;;-2.10;73.50;;;;;;5022380;28;46450;-65
2022/01/08 01:56:45;;;;;;;6.07;3.30;;;-2.00;73.40;;;;;;5021745;28;46492;-65
2022/01/08 01:59:15;;;;;;;5.97;3.28;;;-1.90;73.20;;;;;;5021406;28;46524;-65
2022/01/08 02:01:44;;;;;;;6.28;3.70;;;-1.90;73.30;;;;;;5021276;28;48411;-66
2022/01/08 02:04:10;;;;;;;5.45;3.65;;;-1.90;73.50;;;;;;5022253;28;46601;-66
2022/01/08 02:06:36;;;;;;;6.07;3.78;;;-2.00;73.40;;;;;;5023560;28;46449;-67
2022/01/08 02:09:02;;;;;;;5.53;3.30;;;-2.00;73.40;;;;;;5022931;28;46430;-68
2022/01/08 02:11:28;;;;;;;4.70;3.30;;;-2.00;73.50;;;;;;5018008;28;47614;-67
2022/01/08 02:14:04;;;;;;;6.30;3.97;;;-2.00;73.50;;;;;;5018584;28;45947;-67
2022/01/08 02:16:30;;;;;;;7.20;3.40;;;-2.00;73.50;;;;;;5019951;28;45830;-66
2022/01/08 02:18:56;;;;;;;4.55;3.00;;;-2.00;73.60;;;;;;5020286;28;46414;-67
2022/01/08 02:21:22;;;;;;;5.53;3.15;;;-2.00;73.70;;;;;;5020642;28;47455;-68
2022/01/08 02:23:48;;;;;;;3.60;2.83;;;-2.10;73.70;;;;;;5019284;28;46339;-67
2022/01/08 02:26:14;;;;;;;5.32;3.08;;;-2.10;73.60;;;;;;5020248;28;46381;-67
2022/01/08 02:28:41;;;;;;;4.70;3.45;;;-2.10;73.50;;;;;;5018711;28;46381;-67
2022/01/08 02:31:19;;;;;;;3.80;3.22;;;-2.10;73.60;;;;;;5017883;28;47977;-68
2022/01/08 02:33:47;;;;;;;5.82;2.88;;;-2.10;73.50;;;;;;5018951;28;46470;-68
2022/01/08 02:36:15;;;;;;;3.95;2.95;;;-2.20;73.40;;;;;;5020314;28;45876;-67
2022/01/08 02:38:44;;;;;;;6.85;3.05;;;-2.30;73.30;;;;;;5019517;28;46401;-66
2022/01/08 02:41:13;;;;;;;3.25;2.50;;;-2.30;73.40;;;;;;5017745;28;47969;-66
2022/01/08 02:43:45;;;;;;;4.00;2.65;;;-2.40;73.50;;;;;;5019386;28;46326;-68
2022/01/08 02:46:10;;;;;;;3.85;2.60;;;-2.30;73.50;;;;;;5019315;28;46401;-67
2022/01/08 02:48:36;;;;;;;4.10;2.40;;;-2.30;73.70;;;;;;5019857;28;46377;-67
2022/01/08 02:51:02;;;;;;;4.83;2.03;;;-2.30;73.70;;;;;;5019535;28;46355;-67
2022/01/08 02:53:28;;;;;;;3.25;2.40;;;-2.30;73.50;;;;;;5019014;28;46618;-68
2022/01/08 02:55:54;;;;;;;3.20;2.67;;;-2.30;73.50;;;;;;5018782;28;46398;-68
2022/01/08 02:58:21;;;;;;;3.13;2.40;;;-2.20;73.30;;;;;;5018911;28;46637;-69
2022/01/08 03:00:47;;;;;;;3.40;2.63;;;-2.20;73.10;;;;;;5019104;28;49068;-68
2022/01/08 03:03:15;;;;;;;5.80;2.40;;;-2.20;73.00;;;;;;5018898;28;45835;-68
2022/01/08 03:05:41;;;;;;;3.28;1.90;;;-2.10;72.80;;;;;;5018884;28;46365;-67
2022/01/08 03:08:06;;;;;;;3.20;2.00;;;-2.00;72.70;;;;;;5019500;28;46365;-68
2022/01/08 03:10:32;;;;;;;3.10;2.07;;;-1.90;72.40;;;;;;5018603;28;48143;-67
2022/01/08 03:12:58;;;;;;;3.17;2.17;;;-1.90;72.30;;;;;;5018955;28;46346;-68
2022/01/08 03:15:23;;;;;;;2.50;2.03;;;-1.90;72.20;;;;;;5019120;28;46398;-67
2022/01/08 03:17:52;;;;;;;2.00;1.80;;;-1.90;72.10;;;;;;5018889;28;46365;-67
2022/01/08 03:20:17;;;;;;;2.40;1.73;;;-1.90;72.10;;;;;;5018961;28;46493;-67
2022/01/08 03:22:49;;;;;;;2.60;1.80;;;-1.90;72.00;;;;;;5019546;28;46429;-68
2022/01/08 03:25:16;;;;;;;2.97;1.52;;;-1.90;72.10;;;;;;5022546;28;46442;-68
2022/01/08 03:27:42;;;;;;;2.40;1.10;;;-1.90;72.10;;;;;;5021921;28;46419;-67
2022/01/08 03:30:10;;;;;;;1.83;1.35;;;-1.70;72.10;;;;;;5021246;28;48896;-68
2022/01/08 03:32:36;;;;;;;1.10;1.00;;;-1.50;71.80;;;;;;5021600;28;46405;-68
2022/01/08 03:35:03;;;;;;;1.60;1.33;;;-1.40;71.60;;;;;;5021609;28;46305;-67
2022/01/08 03:37:29;;;;;;;2.67;1.70;;;-1.30;71.40;;;;;;5022013;28;46474;-67
2022/01/08 03:39:54;;;;;;;1.38;1.15;;;-1.20;71.50;;;;;;5021218;28;47802;-67
2022/01/08 03:42:20;;;;;;;0.80;0.80;;;-1.20;71.50;;;;;;5023150;28;46517;-67
2022/01/08 03:44:46;;;;;;;1.70;1.13;;;-1.20;71.20;;;;;;5022127;28;46294;-68
2022/01/08 03:49:52;;;;;;;2.45;1.10;;;-1.10;71.20;;;;;;5021970;28;46314;-68
2022/01/08 03:52:19;;;;;;;1.10;0.88;;;-1.00;71.10;;;;;;5021498;28;46403;-67
2022/01/08 03:54:44;;;;;;;1.40;0.98;;;-0.90;70.80;;;;;;5021513;28;46485;-67
2022/01/08 03:57:13;;;;;;;1.20;0.90;;;-0.80;70.80;;;;;;5021329;28;46598;-67
2022/01/08 03:59:39;;;;;;;1.92;0.90;;;-0.70;70.50;;;;;;5021250;28;47924;-67
2022/01/08 04:02:05;;;;;;;1.00;0.80;;;-0.60;70.50;;;;;;5020464;28;46474;-68
2022/01/08 04:04:31;;;;;;;1.10;0.87;;;-0.50;70.20;;;;;;5021692;28;46370;-67
2022/01/08 04:06:57;;;;;;;1.00;0.90;;;-0.40;70.30;;;;;;5022673;28;46561;-68
2022/01/08 04:09:23;;;;;;;1.00;0.90;;;-0.30;70.20;;;;;;5021371;28;47995;-67
2022/01/08 04:11:50;;;;;;;2.10;1.03;;;-0.10;70.00;;;;;;5020868;28;46607;-67
2022/01/08 04:14:17;;;;;;;1.20;0.75;;;0.00;69.90;;;;;;5023218;28;46466;-66
2022/01/08 04:16:47;;;;;;;1.90;0.80;;;0.10;69.50;;;;;;5021590;28;46597;-67
2022/01/08 04:19:13;;;;;;;0.90;0.73;;;0.20;69.50;;;;;;5018839;28;48810;-65
2022/01/08 04:24:08;;;;;;;1.75;0.80;;;0.70;70.00;;;;;;5022223;28;46645;-67
2022/01/08 04:26:34;;;;;;;0.70;0.60;;;0.90;70.10;;;;;;5020429;28;45830;-67
2022/01/08 04:29:00;;;;;;;1.40;0.60;;;1.10;70.30;;;;;;5016671;28;46455;-66
2022/01/08 04:31:27;;;;;;;0.70;0.50;;;1.30;70.50;;;;;;5020167;28;46355;-65
2022/01/08 04:33:53;;;;;;;1.10;0.50;;;1.50;70.20;;;;;;5019128;28;46589;-68
2022/01/08 04:36:20;;;;;;;0.90;0.60;;;1.60;69.90;;;;;;5020579;28;45947;-68
2022/01/08 04:38:46;;;;;;;0.60;0.50;;;1.80;70.00;;;;;;5020766;28;46430;-68
2022/01/08 04:41:11;;;;;;;0.70;0.70;;;1.90;69.90;;;;;;5020506;28;46401;-67
2022/01/08 04:43:43;;;;;;;0.80;0.60;;;1.90;70.00;;;;;;5020907;28;46441;-68
2022/01/08 04:46:09;;;;;;;0.70;0.50;;;1.90;70.60;;;;;;5019649;28;46379;-68
2022/01/08 04:48:35;;;;;;;0.67;0.50;;;1.80;70.90;;;;;;5020377;28;47935;-67
2022/01/08 04:51:00;;;;;;;1.27;0.80;;;1.80;70.90;;;;;;5020414;28;46502;-67
2022/01/08 04:53:26;;;;;;;1.07;0.60;;;1.80;70.90;;;;;;5021079;28;46453;-67
2022/01/08 04:55:54;;;;;;;0.80;0.50;;;1.80;70.90;;;;;;5020487;28;46701;-66
2022/01/08 04:58:20;;;;;;;0.70;0.50;;;1.90;71.00;;;;;;5019372;28;47987;-67
2022/01/08 05:00:45;;;;;;;0.70;0.60;;;1.90;71.00;;;;;;5019851;28;46452;-67
2022/01/08 05:03:11;;;;;;;2.07;0.73;;;1.90;71.00;;;;;;5019175;28;46320;-67
2022/01/08 05:05:40;;;;;;;0.77;0.50;;;2.00;71.10;;;;;;5020581;28;46355;-68
2022/01/08 05:08:06;;;;;;;0.80;0.70;;;2.10;71.10;;;;;;5019908;28;48114;-66
2022/01/08 05:10:33;;;;;;;1.08;0.60;;;2.20;71.10;;;;;;5020068;28;46558;-68
2022/01/08 05:13:04;;;;;;;1.55;0.90;;;2.20;70.80;;;;;;5022029;28;46335;-67
2022/01/08 05:15:31;;;;;;;1.00;0.65;;;2.20;70.90;;;;;;5020853;28;45877;-67
2022/01/08 05:17:56;;;;;;;0.80;0.60;;;2.30;70.70;;;;;;5020688;28;48801;-67
2022/01/08 05:20:22;;;;;;;0.80;0.60;;;2.30;70.50;;;;;;5020709;28;46409;-66
2022/01/08 05:25:15;;;;;;;0.90;0.60;;;2.40;70.40;;;;;;5022457;28;46375;-69
2022/01/08 05:27:42;;;;;;;1.10;0.70;;;2.40;70.40;;;;;;5020159;28;48910;-68
2022/01/08 05:30:09;;;;;;;0.80;0.60;;;2.30;70.90;;;;;;5019578;28;46388;-66
2022/01/08 05:32:35;;;;;;;0.82;0.60;;;2.30;71.30;;;;;;5019932;28;45859;-66
2022/01/08 05:35:01;;;;;;;0.70;0.50;;;2.30;71.30;;;;;;5022003;28;46601;-66
2022/01/08 05:37:26;;;;;;;2.20;0.60;;;2.30;71.30;;;;;;5020002;28;47840;-67
2022/01/08 05:39:57;;;;;;;0.70;0.50;;;2.20;70.90;;;;;;5020419;28;46432;-67
2022/01/08 05:42:23;;;;;;;1.27;0.70;;;2.20;70.60;;;;;;5020204;28;46354;-68
2022/01/08 05:44:49;;;;;;;0.70;0.50;;;2.20;70.40;;;;;;5019749;28;46457;-67
2022/01/08 05:47:15;;;;;;;2.60;0.83;;;2.20;70.50;;;;;;5019673;28;48675;-67
2022/01/08 05:49:41;;;;;;;0.77;0.50;;;2.20;70.40;;;;;;5019361;28;46500;-66
2022/01/08 05:52:07;;;;;;;0.80;0.55;;;2.20;70.50;;;;;;5019956;28;46522;-65
2022/01/08 05:54:34;;;;;;;0.80;0.50;;;2.20;70.60;;;;;;5019496;28;46489;-67
2022/01/08 05:56:59;;;;;;;0.80;0.50;;;2.20;70.40;;;;;;5019472;28;49008;-67
2022/01/08 05:59:26;;;;;;;0.77;0.70;;;2.20;70.50;;;;;;5019338;28;46442;-68
2022/01/08 06:01:56;;;;;;;0.80;0.60;;;2.20;70.70;;;;;;5019113;28;46378;-66
2022/01/08 06:04:22;;;;;;;1.17;0.60;;;2.20;70.70;;;;;;5019454;28;46425;-66
2022/01/08 06:06:51;;;;;;;1.02;0.63;;;2.20;71.20;;;;;;5020718;28;48378;-67
2022/01/08 06:09:17;;;;;;;0.90;0.60;;;2.20;71.30;;;;;;5019978;28;46513;-66
2022/01/08 06:11:43;;;;;;;1.00;0.63;;;2.20;71.20;;;;;;5018949;28;45872;-66
2022/01/08 06:14:09;;;;;;;0.90;0.60;;;2.20;71.20;;;;;;5019834;28;46405;-68
2022/01/08 06:16:36;;;;;;;0.80;0.57;;;2.20;71.20;;;;;;5021002;28;47234;-66
2022/01/08 06:19:08;;;;;;;0.80;0.60;;;2.20;71.20;;;;;;5019348;28;46489;-68
2022/01/08 06:21:33;;;;;;;0.70;0.60;;;2.20;71.20;;;;;;5019526;28;46378;-66
2022/01/08 06:24:00;;;;;;;0.80;0.60;;;2.20;71.20;;;;;;5019330;28;46559;-67
2022/01/08 06:26:25;;;;;;;0.70;0.50;;;2.20;71.20;;;;;;5018928;28;48868;-66
2022/01/08 06:28:51;;;;;;;1.57;0.60;;;2.20;71.30;;;;;;5018985;28;46523;-66
2022/01/08 06:31:21;;;;;;;0.70;0.60;;;2.20;71.20;;;;;;5018144;28;45813;-66
2022/01/08 06:33:48;;;;;;;1.38;0.60;;;2.20;71.20;;;;;;5019750;28;46637;-67
2022/01/08 06:36:17;;;;;;;0.70;0.50;;;2.10;71.10;;;;;;5019021;28;48811;-67
2022/01/08 06:38:43;;;;;;;0.80;0.63;;;2.20;71.20;;;;;;5019194;28;46529;-66
2022/01/08 06:41:09;;;;;;;1.00;0.60;;;2.30;71.30;;;;;;5019766;28;46439;-67
2022/01/08 06:43:35;;;;;;;0.70;0.60;;;2.40;71.40;;;;;;5019436;28;45915;-66
2022/01/08 06:46:01;;;;;;;0.97;0.70;;;2.50;71.20;;;;;;5018393;28;48798;-66
2022/01/08 06:48:27;;;;;;;0.80;0.60;;;2.50;70.60;;;;;;5018304;28;46292;-68
2022/01/08 06:50:52;;;;;;;0.70;0.50;;;2.60;71.00;;;;;;5020181;28;46546;-67
2022/01/08 06:53:18;;;;;;;1.13;0.70;;;2.70;70.80;;;;;;5019140;28;46576;-69
2022/01/08 06:55:44;;;;;;;0.90;0.60;;;2.70;70.70;;;;;;5020681;28;46066;-65
2022/01/08 06:58:10;;;;;;;1.10;0.70;;;2.70;71.70;;;;;;5021540;28;46404;-66
2022/01/08 07:00:36;;;;;;;1.00;0.77;;;2.70;70.70;;;;;;5022338;28;46481;-67
2022/01/08 07:03:02;;;;;;;1.53;0.80;;;2.80;70.80;;;;;;5022068;28;46437;-68
2022/01/08 07:05:29;;;;;;;1.10;0.88;;;2.80;70.80;;;;;;5021853;28;47887;-66
2022/01/08 07:07:54;;;;;;;2.38;0.85;;;2.80;71.00;;;;;;5021958;28;46343;-66
2022/01/08 07:10:20;;;;;;;2.07;1.53;;;2.70;71.20;;;;;;5021648;28;46735;-68
2022/01/08 07:12:46;;;;;;;2.07;1.63;;;2.60;71.60;;;;;;5023326;28;46292;-67
2022/01/08 07:15:12;;;;;;;3.10;1.70;;;2.60;71.60;;;;;;5021890;28;47723;-69
2022/01/08 07:17:39;;;;;;;5.00;1.05;;;2.50;72.80;;;;;;5021742;28;46612;-67
2022/01/08 07:20:05;;;;;;;1.00;0.80;;;2.50;72.70;;;;;;5022618;28;46409;-68
2022/01/08 07:22:31;;;;;;;1.77;1.23;;;2.50;72.90;;;;;;5020874;28;46514;-66
2022/01/08 07:24:57;;;;;;;1.70;1.40;;;2.40;73.10;;;;;;5020960;28;48861;-67
2022/01/08 07:27:23;;;;;;;3.10;1.57;;;2.50;73.30;;;;;;5021548;28;46431;-68
2022/01/08 07:29:49;;;;;;;1.60;1.10;;;2.50;73.30;;;;;;5021962;28;46389;-68
2022/01/08 07:32:14;;;;;;;2.13;1.13;;;2.40;73.50;;;;;;5021157;28;46506;-68
2022/01/08 07:34:40;;;;;;;3.20;1.50;;;2.50;73.50;;;;;;5021980;28;47936;-67
2022/01/08 07:37:09;;;;;;;2.00;1.50;;;2.40;73.70;;;;;;5021144;28;46458;-68
2022/01/08 07:39:34;;;;;;;2.35;1.60;;;2.40;73.80;;;;;;5022015;28;46413;-66
2022/01/08 07:42:00;;;;;;;5.90;1.90;;;2.40;74.10;;;;;;5021879;28;46450;-66
2022/01/08 07:44:26;;;;;;;3.33;2.10;;;2.50;74.20;;;;;;5022520;28;47896;-68
2022/01/08 07:46:56;;;;;;;2.73;1.90;;;2.50;74.20;;;;;;5021654;28;46504;-69
2022/01/08 07:49:22;;;;;;;3.55;2.42;;;2.70;74.20;;;;;;5022476;28;46318;-68
2022/01/08 07:51:49;;;;;;;2.03;1.37;;;2.70;74.30;;;;;;5023717;28;45955;-68
2022/01/08 07:54:22;;;;;;;2.42;1.20;;;2.70;74.40;;;;;;5022016;28;47901;-68
2022/01/08 07:56:47;;;;;;;1.30;0.82;;;2.70;74.40;;;;;;5021434;28;46462;-68
2022/01/08 07:59:13;;;;;;;1.73;1.00;;;2.80;74.30;;;;;;5021705;28;46474;-68
2022/01/08 08:01:39;;;;;;;1.27;0.97;;;2.80;74.10;;;;;;5021927;28;46405;-67
2022/01/08 08:04:04;;;;;;;1.17;0.90;;;2.90;73.90;;;;;;5021627;28;48168;-69
2022/01/08 08:06:32;;;;;;;1.10;0.80;;;3.10;73.30;;;;;;5021029;28;46552;-69
2022/01/08 08:08:58;;;;;;;3.25;0.85;;;3.20;72.60;;;;;;5021513;28;46354;-67
2022/01/08 08:11:24;;;;;;;1.60;1.00;;;3.30;72.30;;;;;;5024634;28;46436;-69
2022/01/08 08:13:49;;;;;;;1.00;0.83;;;3.40;72.30;;;;;;5025366;28;48221;-67
2022/01/08 08:16:15;;;;;;;1.47;0.80;;;3.50;72.30;;;;;;5025556;28;45816;-69
2022/01/08 08:18:41;;;;;;;0.90;0.73;;;3.40;72.30;;;;;;5024518;28;46447;-69
2022/01/08 08:21:07;;;;;;;0.80;0.70;;;3.50;72.30;;;;;;5019114;28;46543;-70
2022/01/08 08:23:33;;;;;;;1.00;0.73;;;3.60;72.60;;;;;;5023760;28;48034;-68
2022/01/08 08:25:58;;;;;;;1.10;0.70;;;3.70;72.50;;;;;;5023016;28;46247;-68
2022/01/08 08:28:24;;;;;;;0.90;0.80;;;3.70;72.50;;;;;;5022530;28;46531;-68
2022/01/08 08:30:50;;;;;;;1.10;0.80;;;3.60;72.50;;;;;;5023375;28;46374;-67
2022/01/08 08:33:15;;;;;;;0.80;0.60;;;3.20;74.00;;;;;;5022168;28;46781;-68
2022/01/08 08:35:41;;;;;;;0.80;0.60;;;3.00;75.20;;;;;;5021685;28;46401;-67
2022/01/08 08:38:07;;;;;;;0.90;0.70;;;3.00;75.70;;;;;;5021529;28;46469;-68
2022/01/08 08:40:33;;;;;;;1.43;0.70;;;3.00;75.80;;;;;;5021487;28;46537;-67
2022/01/08 08:42:58;;;;;;;0.90;0.60;;;3.00;75.50;;;;;;5020642;28;48047;-68
2022/01/08 08:45:24;;;;;;;0.80;0.60;;;3.00;75.20;;;;;;5020459;28;46573;-69
2022/01/08 08:47:50;;;;;;;0.90;0.60;;;3.10;74.70;;;;;;5020233;28;46429;-66
2022/01/08 08:50:16;;;;;;;1.10;0.63;;;3.10;73.50;;;;;;5020685;28;46617;-67
2022/01/08 08:52:42;;;;;;;1.63;0.70;;;3.00;73.30;;;;;;5019776;28;48686;-66
2022/01/08 08:55:08;;;;;;;0.90;0.70;;;3.10;72.50;;;;;;5019291;28;46459;-66
2022/01/08 08:57:34;;;;;;;1.02;0.75;;;2.90;71.80;;;;;;5018581;28;46449;-66
2022/01/08 09:00:00;;;;;;;1.00;0.65;;;2.90;71.90;;;;;;5020618;28;46373;-68
2022/01/08 09:02:26;;;;;;;1.00;0.57;;;2.90;71.80;;;;;;5021510;28;47059;-66
2022/01/08 09:04:52;;;;;;;0.90;0.50;;;2.90;71.80;;;;;;5019790;28;46630;-66
2022/01/08 09:07:18;;;;;;;1.02;0.73;;;2.70;71.70;;;;;;5020260;28;45816;-68
2022/01/08 09:09:44;;;;;;;1.20;0.65;;;2.60;72.30;;;;;;5019385;28;46344;-68
2022/01/08 09:12:16;;;;;;;0.70;0.53;;;2.50;72.80;;;;;;5019513;28;48081;-68
2022/01/08 09:14:42;;;;;;;1.60;0.60;;;2.50;73.60;;;;;;5020134;28;46390;-67
2022/01/08 09:17:10;;;;;;;1.30;0.90;;;2.50;74.00;;;;;;5036768;28;46529;-67
2022/01/08 09:19:36;;;;;;;2.08;0.70;;;2.50;73.30;;;;;;5021292;28;46445;-67
2022/01/08 09:22:02;;;;;;;1.10;0.70;;;2.60;73.20;;;;;;5019821;28;47930;-67
2022/01/08 09:24:29;;;;;;;0.70;0.60;;;2.60;73.30;;;;;;5020258;28;46548;-67
2022/01/08 09:26:54;;;;;;;1.00;0.60;;;2.60;72.90;;;;;;5019169;28;46481;-67
2022/01/08 09:29:22;;;;;;;1.20;0.90;;;2.40;72.70;;;;;;5021340;28;46439;-67
2022/01/08 09:31:48;;;;;;;0.90;0.77;;;2.60;73.20;;;;;;5019086;28;46386;-67
2022/01/08 09:34:14;;;;;;;1.93;0.93;;;2.60;72.00;;;;;;5020488;28;45920;-67
2022/01/08 09:36:40;;;;;;;1.60;1.20;;;2.50;71.80;;;;;;5019464;28;46503;-68
2022/01/08 09:39:07;;;;;;;4.50;1.00;;;2.40;72.90;;;;;;5018834;28;46374;-68
2022/01/08 09:41:33;;;;;;;2.30;1.30;;;2.40;73.90;;;;;;5018353;28;46355;-66
2022/01/08 09:43:59;;;;;;;1.43;0.80;;;2.50;74.00;;;;;;5019453;28;46443;-68
2022/01/08 09:46:24;;;;;;;1.20;0.80;;;2.40;75.00;;;;;;5020137;28;46405;-69
2022/01/08 09:48:53;;;;;;;0.80;0.70;;;2.40;75.70;;;;;;5020924;28;46649;-67
2022/01/08 09:51:19;;;;;;;0.88;0.80;;;2.20;75.80;;;;;;5019447;28;49181;-67
2022/01/08 09:53:46;;;;;;;1.88;0.70;;;2.20;77.10;;;;;;5019238;28;46492;-69
2022/01/08 09:56:12;;;;;;;0.80;0.70;;;2.30;77.00;;;;;;5018978;28;46356;-66
2022/01/08 09:58:38;;;;;;;1.20;0.90;;;2.40;76.70;;;;;;5019040;28;46295;-68
2022/01/08 10:01:26;;;;;;;1.20;1.10;;;2.40;75.80;;;;;;5019066;28;47412;-67
2022/01/08 10:03:53;;;;;;;1.77;1.00;;;2.70;74.60;;;;;;5019529;28;45938;-69
2022/01/08 10:06:24;;;;;;;0.90;0.82;;;2.80;73.60;;;;;;5018721;28;46517;-67
2022/01/08 10:08:50;;;;;;;0.80;0.60;;;2.80;73.30;;;;;;5018693;28;46643;-67
2022/01/08 10:11:16;;;;;;;1.60;0.95;;;2.80;72.80;;;;;;5018764;28;47831;-67
2022/01/08 10:13:43;;;;;;;1.90;0.93;;;3.00;72.70;;;;;;5017666;28;46780;-68
2022/01/08 10:19:03;;;;;;;1.60;0.85;;;2.80;71.70;;;;;;5021103;28;46259;-66
2022/01/08 10:21:34;;;;;;;2.55;0.88;;;2.50;71.50;;;;;;5019217;28;48232;-69
2022/01/08 10:24:08;;;;;;;2.13;0.93;;;2.40;71.50;;;;;;5018462;28;46397;-68
2022/01/08 10:26:45;;;;;;;1.08;0.98;;;2.40;71.40;;;;;;5019805;28;46414;-68
2022/01/08 10:29:13;;;;;;;5.07;1.38;;;2.50;71.50;;;;;;5018791;28;46671;-67
2022/01/08 10:31:41;;;;;;;1.20;1.10;;;2.60;71.60;;;;;;5019022;28;47870;-68
2022/01/08 10:34:10;;;;;;;2.75;1.15;;;2.80;70.80;;;;;;5017597;28;46411;-69
2022/01/08 10:37:04;;;;;;;1.38;1.13;;;2.60;69.30;;;;;;5019240;28;46425;-68
2022/01/08 10:39:32;;;;;;;2.10;1.15;;;2.60;69.60;;;;;;5015757;28;46513;-67
2022/01/08 10:42:02;;;;;;;1.67;1.20;;;2.70;69.20;;;;;;5017604;28;47369;-70
2022/01/08 10:44:30;;;;;;;1.27;1.10;;;2.70;68.80;;;;;;5017773;28;46363;-67
2022/01/08 10:47:05;;;;;;;1.70;1.23;;;3.00;68.70;;;;;;5017768;28;46439;-68
2022/01/08 10:49:56;;;;;;;1.40;1.30;;;3.10;67.70;;;;;;5018732;28;46476;-68
2022/01/08 10:52:22;;;;;;;3.25;1.60;;;3.30;66.90;;;;;;5007476;28;48096;-69
2022/01/08 10:54:54;;;;;;;1.23;1.07;;;3.30;66.00;;;;;;5025627;28;46333;-70
2022/01/08 10:57:21;;;;;;;4.28;1.70;;;3.40;66.10;;;;;;5019346;28;46452;-67
2022/01/08 10:59:55;;;;;;;2.13;1.25;;;3.50;66.00;;;;;;5019918;28;46360;-68
2022/01/08 11:02:26;;;;;;;1.90;1.10;;;3.40;65.70;;;;;;5018846;28;48256;-68
2022/01/08 11:04:53;;;;;;;5.03;1.80;;;3.40;65.90;;;;;;5019011;28;46927;-68
2022/01/08 11:07:27;;;;;;;4.35;1.40;;;3.40;65.20;;;;;;5018364;28;46419;-68
2022/01/08 11:09:56;;;;;;;1.13;0.90;;;3.50;64.60;;;;;;5015205;28;46534;-66
2022/01/08 11:12:29;;;;;;;1.48;1.20;;;3.70;64.10;;;;;;5016163;28;47891;-66
2022/01/08 11:17:43;;;;;;;1.80;1.27;;;3.70;63.10;;;;;;5017066;28;45991;-67
2022/01/08 11:20:12;;;;;;;1.63;1.10;;;3.60;63.60;;;;;;5016927;28;46444;-68
2022/01/08 11:22:44;;;;;;;3.08;1.33;;;3.80;63.50;;;;;;5018519;28;46280;-67
2022/01/08 11:25:16;;;;;;;2.03;0.95;;;3.70;62.30;;;;;;5017976;28;46410;-68
2022/01/08 11:28:07;;;;;;;3.63;1.17;;;3.50;62.70;;;;;;5018046;28;46401;-69
2022/01/08 11:30:45;;;;;;;1.13;1.00;;;3.50;62.70;;;;;;5017601;28;45926;-68
2022/01/08 11:33:17;;;;;;;2.03;1.73;;;3.30;62.90;;;;;;5019397;28;46322;-67
2022/01/08 11:35:45;;;;;;;3.42;1.55;;;3.10;63.40;;;;;;5017933;28;46392;-67
2022/01/08 11:38:12;;;;;;;2.20;1.30;;;2.90;63.90;;;;;;5019797;28;45871;-67
2022/01/08 11:40:41;;;;;;;2.07;1.20;;;2.80;64.00;;;;;;5017626;28;46497;-68
2022/01/08 11:43:08;;;;;;;2.00;1.30;;;2.70;64.30;;;;;;5021195;28;47747;-66
2022/01/08 11:45:56;;;;;;;1.80;1.15;;;2.70;64.10;;;;;;5020370;28;46436;-67
2022/01/08 11:48:25;;;;;;;2.40;1.30;;;2.40;64.20;;;;;;5019977;28;46387;-68
2022/01/08 11:50:51;;;;;;;1.88;1.20;;;2.30;64.70;;;;;;5021610;28;46470;-66
2022/01/08 11:53:26;;;;;;;3.45;1.40;;;2.30;64.70;;;;;;5017695;28;48742;-67
2022/01/08 11:55:56;;;;;;;2.40;1.40;;;2.30;64.80;;;;;;5020931;28;46497;-67
2022/01/08 11:58:41;;;;;;;1.65;1.00;;;2.30;64.40;;;;;;5020407;28;46403;-65
2022/01/08 12:01:14;;;;;;;1.70;1.30;;;2.30;64.30;;;;;;5019949;28;46486;-65
2022/01/08 12:03:52;;;;;;;1.50;1.10;;;2.30;64.10;;;;;;5019467;28;48146;-68
2022/01/08 12:06:21;;;;;;;2.85;1.20;;;2.40;64.00;;;;;;5019838;28;46409;-67
2022/01/08 12:08:53;;;;;;;1.65;1.40;;;2.40;63.70;;;;;;5018243;28;46270;-67
2022/01/08 12:11:19;;;;;;;2.55;1.08;;;2.30;63.80;;;;;;5018494;28;46010;-67
2022/01/08 12:13:48;;;;;;;4.37;1.67;;;2.40;63.70;;;;;;5019292;28;47809;-65
2022/01/08 12:16:37;;;;;;;1.38;1.20;;;2.40;63.50;;;;;;5020683;28;45913;-67
2022/01/08 12:19:07;;;;;;;3.65;1.80;;;2.60;63.20;;;;;;5019954;28;46453;-67
2022/01/08 12:21:34;;;;;;;1.77;1.20;;;2.80;62.70;;;;;;5020095;28;46477;-66
2022/01/08 12:24:25;;;;;;;2.50;1.50;;;3.00;61.80;;;;;;5022028;28;46433;-66
2022/01/08 12:26:53;;;;;;;2.75;1.08;;;3.10;61.40;;;;;;5020458;28;46609;-67
2022/01/08 12:29:31;;;;;;;1.42;0.95;;;3.30;61.60;;;;;;5020895;28;46546;-68
2022/01/08 12:32:18;;;;;;;4.95;1.30;;;3.30;61.10;;;;;;5020196;28;46319;-67
2022/01/08 12:34:48;;;;;;;1.98;1.05;;;3.10;60.70;;;;;;5020369;28;46267;-66
2022/01/08 12:37:14;;;;;;;2.00;1.15;;;3.00;60.70;;;;;;5019014;28;46600;-68
2022/01/08 12:39:43;;;;;;;5.00;1.33;;;2.80;60.90;;;;;;5020348;28;46409;-66
2022/01/08 12:42:23;;;;;;;2.17;0.98;;;2.70;61.10;;;;;;5019316;28;46472;-66
2022/01/08 12:45:19;;;;;;;1.10;1.00;;;2.40;62.20;;;;;;5023682;28;47984;-66
2022/01/08 12:48:00;;;;;;;4.15;1.15;;;2.30;61.70;;;;;;5022010;28;46343;-66
2022/01/08 12:50:30;;;;;;;5.40;1.10;;;2.20;61.80;;;;;;5020820;28;46706;-66
2022/01/08 12:53:05;;;;;;;1.45;1.02;;;2.10;61.70;;;;;;5020073;28;46565;-67
2022/01/08 12:55:43;;;;;;;2.85;0.90;;;2.10;61.70;;;;;;5019195;28;48036;-67
2022/01/08 12:58:15;;;;;;;2.25;1.00;;;2.10;61.70;;;;;;5019372;28;46758;-67
2022/01/08 13:00:59;;;;;;;1.40;1.20;;;2.20;61.40;;;;;;5020200;28;46429;-68
2022/01/08 13:03:26;;;;;;;2.42;1.25;;;2.60;60.80;;;;;;5019701;28;46430;-67
2022/01/08 13:05:53;;;;;;;2.83;0.85;;;3.30;60.00;;;;;;5019775;28;47970;-67
2022/01/08 13:08:27;;;;;;;2.42;1.10;;;3.20;59.50;;;;;;5018835;28;46431;-67
2022/01/08 13:11:00;;;;;;;2.17;1.00;;;3.10;58.80;;;;;;5019800;28;46316;-67
2022/01/08 13:13:46;;;;;;;1.20;1.08;;;3.00;59.40;;;;;;5014778;28;46587;-67
2022/01/08 13:16:13;;;;;;;3.10;1.08;;;2.80;59.30;;;;;;5017973;28;48005;-67
2022/01/08 13:18:39;;;;;;;1.90;1.10;;;2.80;59.30;;;;;;5021022;28;46256;-67
2022/01/08 13:21:06;;;;;;;2.88;1.45;;;2.60;59.40;;;;;;5020137;28;46482;-65
2022/01/08 13:23:45;;;;;;;1.93;0.90;;;2.60;59.90;;;;;;5019751;28;46463;-66
2022/01/08 13:26:12;;;;;;;1.48;0.80;;;2.70;59.70;;;;;;5036839;28;48006;-67
2022/01/08 13:28:40;;;;;;;2.13;1.10;;;2.70;59.80;;;;;;5018980;28;46369;-67
2022/01/08 13:31:06;;;;;;;1.48;0.95;;;2.70;59.60;;;;;;5018918;28;46268;-66